createdAt,value
2019-04-07T00:02:21.022Z,6.71
2019-04-07T00:04:47.752Z,6.88
2019-04-07T00:07:14.957Z,6.94
2019-04-07T00:09:41.568Z,7.05
2019-04-07T00:12:08.278Z,7.05
2019-04-07T00:14:34.930Z,7.04
2019-04-07T00:17:01.780Z,7.11
2019-04-07T00:19:28.586Z,7.15
2019-04-07T00:21:55.750Z,7.15
2019-04-07T00:24:22.595Z,7.08
2019-04-07T00:26:49.336Z,7.22
2019-04-07T00:29:16.093Z,7.24
2019-04-07T00:31:43.109Z,7.27
2019-04-07T00:34:09.962Z,7.29
2019-04-07T00:36:37.793Z,7.35
2019-04-07T00:39:06.891Z,7.35
2019-04-07T00:41:33.560Z,7.38
2019-04-07T00:44:00.395Z,7.34
2019-04-07T00:46:27.002Z,7.35
2019-04-07T00:48:53.950Z,7.26
2019-04-07T00:51:20.822Z,7.33
2019-04-07T00:53:47.455Z,7.28
2019-04-07T00:56:14.628Z,7.16
2019-04-07T00:58:41.386Z,7.20
2019-04-07T01:01:09.141Z,7.20
2019-04-07T01:03:35.801Z,7.20
2019-04-07T01:06:02.468Z,7.22
2019-04-07T01:08:29.397Z,7.23
2019-04-07T01:10:56.223Z,7.30
2019-04-07T01:13:24.013Z,7.35
2019-04-07T01:15:51.396Z,7.35
2019-04-07T01:18:18.230Z,7.29
2019-04-07T01:20:45.212Z,7.29
2019-04-07T01:23:12.712Z,7.36
2019-04-07T01:25:39.683Z,7.35
2019-04-07T01:28:06.677Z,7.27
2019-04-07T01:30:33.668Z,7.20
2019-04-07T01:33:00.915Z,7.24
2019-04-07T01:35:27.983Z,7.26
2019-04-07T01:37:56.144Z,7.33
2019-04-07T01:40:23.509Z,7.31
2019-04-07T01:42:55.247Z,7.27
2019-04-07T01:45:39.244Z,7.01
2019-04-07T01:48:13.916Z,7.25
2019-04-07T01:50:51.841Z,7.22
2019-04-07T01:53:20.329Z,7.28
2019-04-07T01:55:58.660Z,7.31
2019-04-07T01:58:33.042Z,7.33
2019-04-07T02:01:18.362Z,7.42
2019-04-07T02:03:58.980Z,7.50
2019-04-07T02:06:33.317Z,7.51
2019-04-07T02:09:01.839Z,7.52
2019-04-07T02:11:48.020Z,7.61
2019-04-07T02:14:19.233Z,7.61
2019-04-07T02:16:47.674Z,7.62
2019-04-07T02:19:19.306Z,7.60
2019-04-07T02:21:53.534Z,7.64
2019-04-07T02:24:38.898Z,7.64
2019-04-07T02:27:07.659Z,7.73
2019-04-07T02:29:48.840Z,7.72
2019-04-07T02:32:34.478Z,7.72
2019-04-07T02:35:20.892Z,7.70
2019-04-07T02:38:02.242Z,7.74
2019-04-07T02:40:48.766Z,7.73
2019-04-07T02:43:35.890Z,7.65
2019-04-07T02:46:04.411Z,7.77
2019-04-07T02:48:45.021Z,7.81
2019-04-07T02:51:22.893Z,7.84
2019-04-07T02:54:07.762Z,7.70
2019-04-07T02:56:37.412Z,7.72
2019-04-07T02:59:06.068Z,7.64
2019-04-07T03:01:51.990Z,7.61
2019-04-07T03:04:24.501Z,7.61
2019-04-07T03:06:58.966Z,7.59
2019-04-07T03:09:28.232Z,7.52
2019-04-07T03:12:04.197Z,7.49
2019-04-07T03:14:34.452Z,7.58
2019-04-07T03:17:20.149Z,7.59
2019-04-07T03:19:57.788Z,7.63
2019-04-07T03:22:42.438Z,7.66
2019-04-07T03:25:14.127Z,7.70
2019-04-07T03:27:52.710Z,7.73
2019-04-07T03:30:40.511Z,7.69
2019-04-07T03:33:27.499Z,7.77
2019-04-07T03:36:18.013Z,7.69
2019-04-07T03:38:43.315Z,7.64
2019-04-07T03:41:21.759Z,7.63
2019-04-07T03:43:59.342Z,7.64
2019-04-07T03:46:34.653Z,7.60
2019-04-07T03:49:18.778Z,7.57
2019-04-07T03:51:59.875Z,7.64
2019-04-07T03:54:28.488Z,7.62
2019-04-07T03:57:06.983Z,7.66
2019-04-07T03:59:44.710Z,7.63
2019-04-07T04:02:30.193Z,7.59
2019-04-07T04:04:59.613Z,7.57
2019-04-07T04:07:34.294Z,7.56
2019-04-07T04:09:58.767Z,7.56
2019-04-07T04:12:34.196Z,7.71
2019-04-07T04:15:06.741Z,7.64
2019-04-07T04:17:34.478Z,7.63
2019-04-07T04:20:02.319Z,7.64
2019-04-07T04:22:29.670Z,7.70
2019-04-07T04:24:57.759Z,7.69
2019-04-07T04:27:26.228Z,7.60
2019-04-07T04:29:53.464Z,7.62
2019-04-07T04:32:21.846Z,7.56
2019-04-07T04:34:49.643Z,7.64
2019-04-07T04:37:21.438Z,7.62
2019-04-07T04:39:45.034Z,7.67
2019-04-07T04:42:13.535Z,7.71
2019-04-07T04:44:40.541Z,7.72
2019-04-07T04:47:08.076Z,7.77
2019-04-07T04:49:35.271Z,7.73
2019-04-07T04:52:03.017Z,7.72
2019-04-07T04:54:29.816Z,7.61
2019-04-07T04:56:56.977Z,7.53
2019-04-07T04:59:23.896Z,7.46
2019-04-07T05:01:51.293Z,7.48
2019-04-07T05:04:19.078Z,7.45
2019-04-07T05:06:46.485Z,7.56
2019-04-07T05:09:13.380Z,7.67
2019-04-07T05:11:40.788Z,7.67
2019-04-07T05:14:08.857Z,7.70
2019-04-07T05:16:35.706Z,7.83
2019-04-07T05:19:02.721Z,7.86
2019-04-07T05:21:29.539Z,7.83
2019-04-07T05:23:56.569Z,7.71
2019-04-07T05:26:23.958Z,7.67
2019-04-07T05:28:50.901Z,7.74
2019-04-07T05:31:17.757Z,7.78
2019-04-07T05:33:44.916Z,7.76
2019-04-07T05:36:12.229Z,7.71
2019-04-07T05:38:39.530Z,7.71
2019-04-07T05:41:06.552Z,7.69
2019-04-07T05:43:33.882Z,7.69
2019-04-07T05:46:00.838Z,7.65
2019-04-07T05:48:27.985Z,7.63
2019-04-07T05:50:57.926Z,7.52
2019-04-07T05:53:23.349Z,7.59
2019-04-07T05:55:53.759Z,7.53
2019-04-07T05:58:19.020Z,7.60
2019-04-07T06:00:46.980Z,7.78
2019-04-07T06:03:14.369Z,7.89
2019-04-07T06:05:41.045Z,7.95
2019-04-07T06:08:22.557Z,7.96
2019-04-07T06:10:37.018Z,8.04
2019-04-07T06:13:04.113Z,8.07
2019-04-07T06:15:31.241Z,8.07
2019-04-07T06:18:00.614Z,8.17
2019-04-07T06:20:26.587Z,8.28
2019-04-07T06:22:54.446Z,8.38
2019-04-07T06:25:21.372Z,8.40
2019-04-07T06:27:48.885Z,8.43
2019-04-07T06:30:17.514Z,8.45
2019-04-07T06:32:44.746Z,8.48
2019-04-07T06:35:13.311Z,8.48
2019-04-07T06:37:40.710Z,8.49
2019-04-07T06:40:07.740Z,8.50
2019-04-07T06:42:34.397Z,8.58
2019-04-07T06:45:01.671Z,8.58
2019-04-07T06:47:31.263Z,8.65
2019-04-07T06:50:00.866Z,8.66
2019-04-07T06:52:30.178Z,8.56
2019-04-07T06:55:15.794Z,8.40
2019-04-07T06:58:01.978Z,8.43
2019-04-07T07:00:35.292Z,8.35
2019-04-07T07:03:20.323Z,8.31
2019-04-07T07:05:54.624Z,8.19
2019-04-07T07:08:28.993Z,8.21
2019-04-07T07:11:05.787Z,8.16
2019-04-07T07:13:36.503Z,8.31
2019-04-07T07:16:07.951Z,8.42
2019-04-07T07:18:35.762Z,8.39
2019-04-07T07:21:07.473Z,8.56
2019-04-07T07:23:36.407Z,8.71
2019-04-07T07:26:04.229Z,8.69
2019-04-07T07:28:32.585Z,8.62
2019-04-07T07:31:00.028Z,8.69
2019-04-07T07:33:26.972Z,8.81
2019-04-07T07:35:53.744Z,9.13
2019-04-07T07:38:20.435Z,9.20
2019-04-07T07:40:47.786Z,9.31
2019-04-07T07:43:15.616Z,9.37
2019-04-07T07:45:45.100Z,9.46
2019-04-07T07:48:10.976Z,9.52
2019-04-07T07:50:40.119Z,9.67
2019-04-07T07:53:06.802Z,9.69
2019-04-07T07:55:35.956Z,9.61
2019-04-07T07:58:02.727Z,9.63
2019-04-07T08:00:29.568Z,9.67
2019-04-07T08:02:56.273Z,9.70
2019-04-07T08:05:23.764Z,9.58
2019-04-07T08:07:51.207Z,9.40
2019-04-07T08:10:18.696Z,9.41
2019-04-07T08:12:48.614Z,9.40
2019-04-07T08:15:13.970Z,9.44
2019-04-07T08:17:40.979Z,9.34
2019-04-07T08:20:07.944Z,9.26
2019-04-07T08:22:40.633Z,9.12
2019-04-07T08:25:04.326Z,9.40
2019-04-07T08:27:32.045Z,9.72
2019-04-07T08:30:19.592Z,10.07
2019-04-07T08:32:46.284Z,10.29
2019-04-07T08:35:13.137Z,9.98
2019-04-07T08:37:40.509Z,9.93
2019-04-07T08:40:07.837Z,10.03
2019-04-07T08:42:34.674Z,10.26
2019-04-07T08:45:01.593Z,10.33
2019-04-07T08:47:28.983Z,10.49
2019-04-07T08:49:57.744Z,10.71
2019-04-07T08:52:24.930Z,10.86
2019-04-07T08:54:53.361Z,10.92
2019-04-07T08:57:20.167Z,10.96
2019-04-07T08:59:46.855Z,11.12
2019-04-07T09:02:13.677Z,11.35
2019-04-07T09:04:41.187Z,11.61
2019-04-07T09:07:08.165Z,11.83
2019-04-07T09:09:36.981Z,11.88
2019-04-07T09:12:03.435Z,11.98
2019-04-07T09:14:30.140Z,12.12
2019-04-07T09:17:08.265Z,12.28
2019-04-07T09:19:40.056Z,12.48
2019-04-07T09:22:14.154Z,12.61
2019-04-07T09:24:57.912Z,12.82
2019-04-07T09:27:29.055Z,12.99
2019-04-07T09:30:06.036Z,13.06
2019-04-07T09:32:49.945Z,13.26
2019-04-07T09:35:36.120Z,13.28
2019-04-07T09:38:24.944Z,13.35
2019-04-07T09:41:01.656Z,13.62
2019-04-07T09:43:33.465Z,13.75
2019-04-07T09:46:11.803Z,13.84
2019-04-07T09:48:50.956Z,13.89
2019-04-07T09:51:17.673Z,13.94
2019-04-07T09:53:48.816Z,13.88
2019-04-07T09:56:17.287Z,13.73
2019-04-07T09:59:02.511Z,13.67
2019-04-07T10:01:31.818Z,13.59
2019-04-07T10:04:17.299Z,13.65
2019-04-07T10:06:57.733Z,13.60
2019-04-07T10:09:43.471Z,13.50
2019-04-07T10:12:30.062Z,13.35
2019-04-07T10:15:08.032Z,13.82
2019-04-07T10:17:45.561Z,14.00
2019-04-07T10:20:31.463Z,13.84
2019-04-07T10:23:03.012Z,13.91
2019-04-07T10:25:50.697Z,14.50
2019-04-07T10:28:22.404Z,14.76
2019-04-07T10:30:57.048Z,15.22
2019-04-07T10:33:31.649Z,15.73
2019-04-07T10:36:00.115Z,16.30
2019-04-07T10:38:45.320Z,16.74
2019-04-07T10:41:17.205Z,17.03
2019-04-07T10:43:48.412Z,17.56
2019-04-07T10:46:16.912Z,17.65
2019-04-07T10:48:51.192Z,18.06
2019-04-07T10:51:25.702Z,18.18
2019-04-07T10:53:59.797Z,18.05
2019-04-07T10:56:46.094Z,17.93
2019-04-07T10:59:17.475Z,17.82
2019-04-07T11:01:49.129Z,17.78
2019-04-07T11:04:30.494Z,16.64
2019-04-07T11:07:05.278Z,16.32
2019-04-07T11:09:50.179Z,16.14
2019-04-07T11:12:30.818Z,16.49
2019-04-07T11:15:08.191Z,16.58
2019-04-07T11:17:53.619Z,16.63
2019-04-07T11:20:28.143Z,16.76
2019-04-07T11:23:11.972Z,16.55
2019-04-07T11:25:47.782Z,16.24
2019-04-07T11:28:31.803Z,15.97
2019-04-07T11:31:15.756Z,15.69
2019-04-07T11:33:50.358Z,15.68
2019-04-07T11:36:28.846Z,15.47
2019-04-07T11:39:00.604Z,15.40
2019-04-07T11:41:41.324Z,15.43
2019-04-07T11:44:16.381Z,15.69
2019-04-07T11:46:51.991Z,16.05
2019-04-07T11:49:26.659Z,15.86
2019-04-07T11:52:10.439Z,15.71
2019-04-07T11:54:55.635Z,15.57
2019-04-07T11:57:45.124Z,15.63
2019-04-07T12:00:16.548Z,15.87
2019-04-07T12:02:45.470Z,16.08
2019-04-07T12:05:31.135Z,16.50
2019-04-07T12:08:16.481Z,17.08
2019-04-07T12:10:58.706Z,17.26
2019-04-07T12:13:22.086Z,16.92
2019-04-07T12:15:50.915Z,17.21
2019-04-07T12:18:35.268Z,17.74
2019-04-07T12:21:22.720Z,18.22
2019-04-07T12:24:09.578Z,17.93
2019-04-07T12:26:56.581Z,17.64
2019-04-07T12:29:28.807Z,17.37
2019-04-07T12:32:12.281Z,17.63
2019-04-07T12:34:44.025Z,17.57
2019-04-07T12:37:11.116Z,17.33
2019-04-07T12:39:48.767Z,17.25
2019-04-07T12:42:33.293Z,16.99
2019-04-07T12:45:05.162Z,16.67
2019-04-07T12:47:39.848Z,16.81
2019-04-07T12:50:16.660Z,17.07
2019-04-07T12:52:45.193Z,17.54
2019-04-07T12:55:22.771Z,17.53
2019-04-07T12:58:04.769Z,16.99
2019-04-07T13:00:57.799Z,16.86
2019-04-07T13:03:18.632Z,16.82
2019-04-07T13:05:47.111Z,16.49
2019-04-07T13:08:22.550Z,16.19
2019-04-07T13:10:49.416Z,16.02
2019-04-07T13:13:34.258Z,15.90
2019-04-07T13:16:06.395Z,16.05
2019-04-07T13:18:40.777Z,16.06
2019-04-07T13:21:25.734Z,16.08
2019-04-07T13:24:00.412Z,15.97
2019-04-07T13:26:35.658Z,15.63
2019-04-07T13:29:17.333Z,15.62
2019-04-07T13:31:58.827Z,15.34
2019-04-07T13:34:31.140Z,15.46
2019-04-07T13:37:03.447Z,15.52
2019-04-07T13:39:35.939Z,15.60
2019-04-07T13:42:03.271Z,15.63
2019-04-07T13:44:38.830Z,15.44
2019-04-07T13:47:07.242Z,15.44
2019-04-07T13:49:52.336Z,15.29
2019-04-07T13:52:26.659Z,14.98
2019-04-07T13:55:05.144Z,14.91
2019-04-07T13:57:46.196Z,14.83
2019-04-07T14:00:16.846Z,14.99
2019-04-07T14:02:45.564Z,14.96
2019-04-07T14:05:33.165Z,14.87
2019-04-07T14:08:12.042Z,14.39
2019-04-07T14:10:40.555Z,14.39
2019-04-07T14:13:25.661Z,14.45
2019-04-07T14:16:10.957Z,14.61
2019-04-07T14:18:56.938Z,14.70
2019-04-07T14:21:26.230Z,14.59
2019-04-07T14:24:10.172Z,14.54
2019-04-07T14:26:44.910Z,14.44
2019-04-07T14:29:31.669Z,14.54
2019-04-07T14:32:02.964Z,14.00
2019-04-07T14:34:41.293Z,14.02
2019-04-07T14:37:12.700Z,13.87
2019-04-07T14:39:44.459Z,13.83
2019-04-07T14:42:13.191Z,13.71
2019-04-07T14:44:41.593Z,13.59
2019-04-07T14:47:16.247Z,13.69
2019-04-07T14:49:52.101Z,13.59
2019-04-07T14:52:25.028Z,13.56
2019-04-07T14:54:57.106Z,13.52
2019-04-07T14:57:25.528Z,13.31
2019-04-07T15:00:00.077Z,13.56
2019-04-07T15:02:27.933Z,13.33
2019-04-07T15:05:14.874Z,13.27
2019-04-07T15:07:46.997Z,13.28
2019-04-07T15:10:28.434Z,13.27
2019-04-07T15:12:57.903Z,13.33
2019-04-07T15:15:24.806Z,13.34
2019-04-07T15:17:52.367Z,13.17
2019-04-07T15:21:00.348Z,13.41
2019-04-07T15:23:33.508Z,13.52
2019-04-07T15:26:00.316Z,13.44
2019-04-07T15:28:29.770Z,13.36
2019-04-07T15:30:55.657Z,13.51
2019-04-07T15:33:22.443Z,13.44
2019-04-07T15:35:50.576Z,13.48
2019-04-07T15:38:23.833Z,13.50
2019-04-07T15:40:47.183Z,13.41
2019-04-07T15:43:13.766Z,13.45
2019-04-07T15:45:42.657Z,13.19
2019-04-07T15:48:09.045Z,13.20
2019-04-07T15:50:35.743Z,13.34
2019-04-07T15:53:02.739Z,13.36
2019-04-07T15:55:43.170Z,13.49
2019-04-07T15:57:59.586Z,13.47
2019-04-07T16:00:26.602Z,13.34
2019-04-07T16:02:53.707Z,13.26
2019-04-07T16:05:21.600Z,13.26
2019-04-07T16:07:51.301Z,13.46
2019-04-07T16:10:21.131Z,13.34
2019-04-07T16:12:49.943Z,13.49
2019-04-07T16:15:16.520Z,13.36
2019-04-07T16:17:43.581Z,13.26
2019-04-07T16:20:20.727Z,13.32
2019-04-07T16:22:44.195Z,13.23
2019-04-07T16:25:11.198Z,13.15
2019-04-07T16:27:39.168Z,13.24
2019-04-07T16:30:09.866Z,13.24
2019-04-07T16:32:37.616Z,13.41
2019-04-07T16:35:10.405Z,13.51
2019-04-07T16:37:37.568Z,13.30
2019-04-07T16:40:10.133Z,13.14
2019-04-07T16:42:34.683Z,13.06
2019-04-07T16:45:01.807Z,13.15
2019-04-07T16:47:32.722Z,13.10
2019-04-07T16:49:57.383Z,13.08
2019-04-07T16:52:24.428Z,13.04
2019-04-07T16:54:51.590Z,12.90
2019-04-07T16:57:18.621Z,12.75
2019-04-07T16:59:45.238Z,12.99
2019-04-07T17:02:14.421Z,12.90
2019-04-07T17:04:41.002Z,12.86
2019-04-07T17:07:12.517Z,12.82
2019-04-07T17:09:36.677Z,12.73
2019-04-07T17:12:03.652Z,12.79
2019-04-07T17:14:34.445Z,12.83
2019-04-07T17:17:00.265Z,12.73
2019-04-07T17:19:27.593Z,12.73
2019-04-07T17:21:56.231Z,12.69
2019-04-07T17:24:27.802Z,12.73
2019-04-07T17:26:51.800Z,12.69
2019-04-07T17:29:20.932Z,12.68
2019-04-07T17:31:48.636Z,12.78
2019-04-07T17:34:15.721Z,12.91
2019-04-07T17:36:42.865Z,12.81
2019-04-07T17:39:14.468Z,12.91
2019-04-07T17:41:41.709Z,12.96
2019-04-07T17:44:16.950Z,12.91
2019-04-07T17:46:43.830Z,12.92
2019-04-07T17:49:26.281Z,12.94
2019-04-07T17:51:54.742Z,12.99
2019-04-07T17:54:32.434Z,12.87
2019-04-07T17:57:10.405Z,12.90
2019-04-07T17:59:44.813Z,12.85
2019-04-07T18:02:11.807Z,12.81
2019-04-07T18:04:50.386Z,12.79
2019-04-07T18:07:20.134Z,12.78
2019-04-07T18:10:05.459Z,12.72
2019-04-07T18:12:33.965Z,12.62
2019-04-07T18:15:19.185Z,12.66
2019-04-07T18:18:05.824Z,12.59
2019-04-07T18:20:41.126Z,12.50
2019-04-07T18:23:24.079Z,12.48
2019-04-07T18:25:53.111Z,12.40
2019-04-07T18:28:25.955Z,12.31
2019-04-07T18:31:02.699Z,12.28
2019-04-07T18:33:50.063Z,12.25
2019-04-07T18:36:19.428Z,12.19
2019-04-07T18:38:53.866Z,12.19
2019-04-07T18:41:25.177Z,12.10
2019-04-07T18:44:08.560Z,12.03
2019-04-07T18:46:36.134Z,12.03
2019-04-07T18:49:05.933Z,11.92
2019-04-07T18:51:48.400Z,11.85
2019-04-07T18:54:33.891Z,11.86
2019-04-07T18:57:10.851Z,11.82
2019-04-07T19:00:01.275Z,11.71
2019-04-07T19:02:35.030Z,11.66
2019-04-07T19:05:07.047Z,11.53
2019-04-07T19:07:47.793Z,11.46
2019-04-07T19:10:25.661Z,11.41
2019-04-07T19:13:06.443Z,11.40
2019-04-07T19:15:30.668Z,11.35
2019-04-07T19:18:05.849Z,11.24
2019-04-07T19:20:38.407Z,11.24
2019-04-07T19:23:13.490Z,11.13
2019-04-07T19:25:58.915Z,11.17
2019-04-07T19:28:42.350Z,11.13
2019-04-07T19:31:27.807Z,11.07
2019-04-07T19:33:58.707Z,10.92
2019-04-07T19:36:27.621Z,10.89
2019-04-07T19:38:59.165Z,10.91
2019-04-07T19:41:34.169Z,10.87
2019-04-07T19:44:18.896Z,10.82
2019-04-07T19:46:48.174Z,10.71
2019-04-07T19:49:20.418Z,10.61
2019-04-07T19:51:53.568Z,10.50
2019-04-07T19:54:22.046Z,10.52
2019-04-07T19:56:50.540Z,10.47
2019-04-07T19:59:26.655Z,10.38
2019-04-07T20:01:58.242Z,10.39
2019-04-07T20:04:37.401Z,10.40
2019-04-07T20:07:09.236Z,10.30
2019-04-07T20:09:44.113Z,10.34
2019-04-07T20:12:16.893Z,10.31
2019-04-07T20:14:59.312Z,10.21
2019-04-07T20:17:24.474Z,10.15
2019-04-07T20:19:53.562Z,10.12
2019-04-07T20:22:23.148Z,10.11
2019-04-07T20:25:13.282Z,10.05
2019-04-07T20:27:42.783Z,10.00
2019-04-07T20:30:16.332Z,10.04
2019-04-07T20:32:59.469Z,10.04
2019-04-07T20:35:30.267Z,9.92
2019-04-07T20:38:02.006Z,9.95
2019-04-07T20:40:36.241Z,9.90
2019-04-07T20:43:14.402Z,9.86
2019-04-07T20:45:51.649Z,9.94
2019-04-07T20:48:20.147Z,9.88
2019-04-07T20:50:51.141Z,9.87
2019-04-07T20:53:23.895Z,9.90
2019-04-07T20:55:56.083Z,9.91
2019-04-07T20:58:46.399Z,9.90
2019-04-07T21:01:22.202Z,9.98
2019-04-07T21:03:56.475Z,9.92
2019-04-07T21:06:42.112Z,10.01
2019-04-07T21:09:10.652Z,10.03
2019-04-07T21:11:47.312Z,9.93
2019-04-07T21:14:18.666Z,9.94
2019-04-07T21:16:53.078Z,9.93
2019-04-07T21:19:35.477Z,9.99
2019-04-07T21:22:01.578Z,9.97
2019-04-07T21:24:49.770Z,9.88
2019-04-07T21:27:27.152Z,9.91
2019-04-07T21:29:56.604Z,9.92
2019-04-07T21:32:41.683Z,9.86
2019-04-07T21:35:29.222Z,9.91
2019-04-07T21:38:13.590Z,9.93
2019-04-07T21:40:43.674Z,9.92
2019-04-07T21:43:15.557Z,9.84
2019-04-07T21:45:54.499Z,9.81
2019-04-07T21:48:39.178Z,9.75
2019-04-07T21:51:16.443Z,9.69
2019-04-07T21:53:44.378Z,9.76
2019-04-07T21:56:18.768Z,9.67
2019-04-07T21:58:59.305Z,9.71
2019-04-07T22:01:28.318Z,9.76
2019-04-07T22:04:15.945Z,9.72
2019-04-07T22:06:48.788Z,9.79
2019-04-07T22:09:23.506Z,9.80
2019-04-07T22:11:50.263Z,9.75
2019-04-07T22:14:16.908Z,9.68
2019-04-07T22:16:43.670Z,9.59
2019-04-07T22:19:13.563Z,9.69
2019-04-07T22:21:38.868Z,9.71
2019-04-07T22:24:05.620Z,9.67
2019-04-07T22:26:33.505Z,9.65
2019-04-07T22:29:03.148Z,9.67
2019-04-07T22:31:31.078Z,9.64
2019-04-07T22:34:00.915Z,9.68
2019-04-07T22:36:27.270Z,9.69
2019-04-07T22:38:56.486Z,9.77
2019-04-07T22:41:24.641Z,9.73
2019-04-07T22:43:51.950Z,9.75
2019-04-07T22:46:24.551Z,9.65
2019-04-07T22:48:48.160Z,9.66
2019-04-07T22:51:14.966Z,9.70
2019-04-07T22:53:41.748Z,9.78
2019-04-07T22:56:09.114Z,9.78
2019-04-07T22:58:36.173Z,9.82
2019-04-07T23:01:03.601Z,9.85
2019-04-07T23:03:31.283Z,9.87
2019-04-07T23:05:59.162Z,9.88
2019-04-07T23:08:26.490Z,9.94
2019-04-07T23:10:53.303Z,9.99
2019-04-07T23:13:19.925Z,9.97
2019-04-07T23:15:47.424Z,10.03
2019-04-07T23:18:15.859Z,10.04
2019-04-07T23:20:42.740Z,10.09
2019-04-07T23:23:09.491Z,10.08
2019-04-07T23:25:36.484Z,10.08
2019-04-07T23:28:03.527Z,10.07
2019-04-07T23:30:31.340Z,10.08
2019-04-07T23:32:58.231Z,10.13
2019-04-07T23:35:24.946Z,10.17
2019-04-07T23:37:51.676Z,10.20
2019-04-07T23:40:18.406Z,10.21
2019-04-07T23:42:45.151Z,10.22
2019-04-07T23:45:12.350Z,10.26
2019-04-07T23:47:39.117Z,10.25
2019-04-07T23:50:07.113Z,10.24
2019-04-07T23:52:33.866Z,10.26
2019-04-07T23:55:00.583Z,10.22
2019-04-07T23:57:27.554Z,10.26
2019-04-07T23:59:54.389Z,10.28
